Yellowknife Airport
CYZF : now visible

Airfield :











YOU CAN JOIN US ON...

 
LOGIN :

Register | Disclaimer

   EN    FR    IT 

 









Legend :    VFR   Marginal VFR   IFR   Intensive IFR   Very Intensive IFR
Visi :
Ceiling :
>= 8 km
>= 3000ft
5 to 8 km
1000 to 3000 ft
1500m to 5 km
500 to 1000 ft
800 to 1500m
200 to 500 ft
< 800m
< 200 ft
Symbols :   Thunderstorms  Fog  Heavy snow  Heavy precipitations  Wind > 20 kt






- Airport Elevation : 675 ft
- IATA code : YZF


CYZF - Yellowknife

CURRENT METAR :
  • 191300Z 33005KT 15SM SCT026 OVC094 M02/M03 A2952 RMK SC4AC4 SLP014

EXPIRED METARs :
  • 191200Z 33006KT 15SM OVC026 M02/M03 A2952 RMK SC8 SLP012
  • 191100Z 33007KT 15SM OVC027 M02/M03 A2951 RMK SC8 SLP009

TAF TAF CYZF
Valid from the 19 at 12:00 until the 20 at 12:00 UTC


191138Z 1912/2012 35008KT P6SM SCT020 BKN040
TEMPO 1912/2012 P6SM -SN BKN020 OVC080
PROB30 1912/1918 2SM -SN BR BKN006 RMK NXT FCST BY 191800Z



MET'MAP, your aeronautical weather chart ! - Copyright ORBIFLY December 2007 - Disclaimer

ORBIFLY MET'MAP TEAM :

Programming & Development : Alexandra Zaïnal
Concept & Development : Baudouin d'Aumeries
Co-Development & Prog : Marc-Olivier Méhu
Technical & hardware support : Manuel Goepfert

Contact : metmap@orbifly.com




SOURCES & CREDITS :

   NOAA       Earth
Advisory